sensor_id;sensor_type;location;lat;lon;timestamp;pressure;altitude;pressure_sealevel;temperature;humidity
38880;BME280;25887;30.194;-97.880;2023-02-13T00:02:22;98708.00;;;19.23;31.07
38880;BME280;25887;30.194;-97.880;2023-02-13T00:05:09;98712.44;;;19.19;31.19
38880;BME280;25887;30.194;-97.880;2023-02-13T00:07:35;98718.59;;;19.16;31.15
38880;BME280;25887;30.194;-97.880;2023-02-13T00:10:07;98719.56;;;19.12;31.20
38880;BME280;25887;30.194;-97.880;2023-02-13T00:12:36;98725.78;;;19.08;31.33
38880;BME280;25887;30.194;-97.880;2023-02-13T00:15:02;98734.53;;;19.06;31.39
38880;BME280;25887;30.194;-97.880;2023-02-13T00:17:28;98736.38;;;19.02;31.40
38880;BME280;25887;30.194;-97.880;2023-02-13T00:19:54;98737.34;;;18.98;31.40
38880;BME280;25887;30.194;-97.880;2023-02-13T00:22:20;98727.88;;;18.96;31.50
38880;BME280;25887;30.194;-97.880;2023-02-13T00:25:05;98728.88;;;18.91;31.38
38880;BME280;25887;30.194;-97.880;2023-02-13T00:27:31;98723.75;;;18.88;31.45
38880;BME280;25887;30.194;-97.880;2023-02-13T00:29:57;98741.22;;;18.85;31.52
38880;BME280;25887;30.194;-97.880;2023-02-13T00:32:23;98743.03;;;18.81;31.32
38880;BME280;25887;30.194;-97.880;2023-02-13T00:34:48;98738.81;;;18.77;31.46
38880;BME280;25887;30.194;-97.880;2023-02-13T00:40:03;98745.16;;;18.67;31.51
38880;BME280;25887;30.194;-97.880;2023-02-13T00:42:29;98745.25;;;18.62;31.60
38880;BME280;25887;30.194;-97.880;2023-02-13T00:44:55;98759.22;;;18.60;31.54
38880;BME280;25887;30.194;-97.880;2023-02-13T00:47:32;98765.38;;;18.56;31.67
38880;BME280;25887;30.194;-97.880;2023-02-13T00:49:58;98760.28;;;18.51;31.49
38880;BME280;25887;30.194;-97.880;2023-02-13T00:52:23;98756.91;;;18.48;31.52
38880;BME280;25887;30.194;-97.880;2023-02-13T00:54:49;98753.56;;;18.43;31.55
38880;BME280;25887;30.194;-97.880;2023-02-13T00:57:15;98747.59;;;18.39;31.70
38880;BME280;25887;30.194;-97.880;2023-02-13T00:59:41;98759.81;;;18.35;31.69
38880;BME280;25887;30.194;-97.880;2023-02-13T01:02:12;98759.91;;;18.32;31.75
38880;BME280;25887;30.194;-97.880;2023-02-13T01:04:38;98773.84;;;18.28;31.55
38880;BME280;25887;30.194;-97.880;2023-02-13T01:07:04;98753.22;;;18.22;31.81
38880;BME280;25887;30.194;-97.880;2023-02-13T01:09:30;98761.09;;;18.19;31.57
38880;BME280;25887;30.194;-97.880;2023-02-13T01:11:56;98762.97;;;18.14;31.78
38880;BME280;25887;30.194;-97.880;2023-02-13T01:14:21;98765.66;;;18.09;31.75
38880;BME280;25887;30.194;-97.880;2023-02-13T01:16:47;98765.75;;;18.05;31.71
38880;BME280;25887;30.194;-97.880;2023-02-13T01:19:13;98758.94;;;18.01;31.82
38880;BME280;25887;30.194;-97.880;2023-02-13T01:21:41;98762.50;;;17.97;31.76
38880;BME280;25887;30.194;-97.880;2023-02-13T01:24:07;98771.28;;;17.93;31.67
38880;BME280;25887;30.194;-97.880;2023-02-13T01:26:33;98773.97;;;17.88;31.68
38880;BME280;25887;30.194;-97.880;2023-02-13T01:28:59;98771.50;;;17.84;31.89
38880;BME280;25887;30.194;-97.880;2023-02-13T01:31:27;98765.53;;;17.78;31.89
38880;BME280;25887;30.194;-97.880;2023-02-13T01:33:54;98750.97;;;17.71;31.98
38880;BME280;25887;30.194;-97.880;2023-02-13T01:36:20;98768.41;;;17.65;32.05
38880;BME280;25887;30.194;-97.880;2023-02-13T01:38:46;98769.41;;;17.59;31.89
38880;BME280;25887;30.194;-97.880;2023-02-13T01:41:12;98769.59;;;17.50;32.09
38880;BME280;25887;30.194;-97.880;2023-02-13T01:46:12;98774.25;;;17.36;32.19
38880;BME280;25887;30.194;-97.880;2023-02-13T01:48:39;98774.38;;;17.30;32.17
38880;BME280;25887;30.194;-97.880;2023-02-13T01:51:10;98785.72;;;17.24;32.18
38880;BME280;25887;30.194;-97.880;2023-02-13T01:56:36;98796.47;;;17.07;31.93
38880;BME280;25887;30.194;-97.880;2023-02-13T01:59:04;98800.06;;;17.00;32.08
38880;BME280;25887;30.194;-97.880;2023-02-13T02:01:31;98801.94;;;16.92;32.29
38880;BME280;25887;30.194;-97.880;2023-02-13T02:03:59;98792.56;;;16.85;32.15
38880;BME280;25887;30.194;-97.880;2023-02-13T02:06:30;98787.47;;;16.79;32.29
38880;BME280;25887;30.194;-97.880;2023-02-13T02:08:58;98796.25;;;16.71;32.41
38880;BME280;25887;30.194;-97.880;2023-02-13T02:13:59;98780.81;;;16.62;32.39
38880;BME280;25887;30.194;-97.880;2023-02-13T02:16:33;98784.38;;;16.58;32.28
38880;BME280;25887;30.194;-97.880;2023-02-13T02:30:10;98802.16;;;16.29;32.66
38880;BME280;25887;30.194;-97.880;2023-02-13T02:40:36;98792.97;;;16.08;32.93
38880;BME280;25887;30.194;-97.880;2023-02-13T02:50:58;98796.75;;;15.88;33.10
38880;BME280;25887;30.194;-97.880;2023-02-13T02:53:37;98803.72;;;15.83;32.97
38880;BME280;25887;30.194;-97.880;2023-02-13T02:56:39;98807.25;;;15.76;33.17
38880;BME280;25887;30.194;-97.880;2023-02-13T02:59:09;98804.78;;;15.69;33.02
38880;BME280;25887;30.194;-97.880;2023-02-13T03:01:54;98811.75;;;15.60;32.99
38880;BME280;25887;30.194;-97.880;2023-02-13T03:04:41;98804.13;;;15.51;33.11
38880;BME280;25887;30.194;-97.880;2023-02-13T03:07:27;98794.78;;;15.41;33.18
38880;BME280;25887;30.194;-97.880;2023-02-13T03:13:27;98789.78;;;15.26;33.25
38880;BME280;25887;30.194;-97.880;2023-02-13T03:15:56;98795.06;;;15.18;33.42
38880;BME280;25887;30.194;-97.880;2023-02-13T03:18:43;98799.47;;;15.10;33.46
38880;BME280;25887;30.194;-97.880;2023-02-13T03:24:23;98803.09;;;14.91;33.53
38880;BME280;25887;30.194;-97.880;2023-02-13T03:32:31;98809.44;;;14.61;33.63
38880;BME280;25887;30.194;-97.880;2023-02-13T03:35:10;98817.31;;;14.50;33.55
38880;BME280;25887;30.194;-97.880;2023-02-13T03:38:00;98811.34;;;14.40;33.80
38880;BME280;25887;30.194;-97.880;2023-02-13T03:40:36;98808.78;;;14.34;33.54
38880;BME280;25887;30.194;-97.880;2023-02-13T03:43:07;98818.34;;;14.26;33.65
38880;BME280;25887;30.194;-97.880;2023-02-13T03:45:37;98807.22;;;14.15;33.47
38880;BME280;25887;30.194;-97.880;2023-02-13T03:48:18;98814.19;;;14.04;33.85
38880;BME280;25887;30.194;-97.880;2023-02-13T03:51:03;98816.84;;;13.94;33.84
38880;BME280;25887;30.194;-97.880;2023-02-13T03:53:31;98811.75;;;13.85;33.90
38880;BME280;25887;30.194;-97.880;2023-02-13T03:55:59;98812.63;;;13.77;33.71
38880;BME280;25887;30.194;-97.880;2023-02-13T03:58:46;98834.19;;;13.71;33.76
38880;BME280;25887;30.194;-97.880;2023-02-13T04:01:33;98853.16;;;13.61;33.87
38880;BME280;25887;30.194;-97.880;2023-02-13T04:04:34;98848.88;;;13.54;34.14
38880;BME280;25887;30.194;-97.880;2023-02-13T04:07:03;98839.47;;;13.47;34.13
38880;BME280;25887;30.194;-97.880;2023-02-13T04:09:30;98825.75;;;13.38;34.33
38880;BME280;25887;30.194;-97.880;2023-02-13T04:12:05;98829.19;;;13.34;33.96
38880;BME280;25887;30.194;-97.880;2023-02-13T04:17:06;98810.31;;;13.22;34.43
38880;BME280;25887;30.194;-97.880;2023-02-13T04:19:41;98815.47;;;13.14;34.09
38880;BME280;25887;30.194;-97.880;2023-02-13T04:22:06;98829.25;;;13.08;34.65
38880;BME280;25887;30.194;-97.880;2023-02-13T04:24:32;98841.28;;;13.05;34.06
38880;BME280;25887;30.194;-97.880;2023-02-13T04:26:58;98830.13;;;13.01;34.26
38880;BME280;25887;30.194;-97.880;2023-02-13T04:29:24;98829.31;;;12.93;34.25
38880;BME280;25887;30.194;-97.880;2023-02-13T04:31:51;98829.31;;;12.86;34.74
38880;BME280;25887;30.194;-97.880;2023-02-13T04:34:17;98825.03;;;12.78;34.64
38880;BME280;25887;30.194;-97.880;2023-02-13T04:36:43;98816.44;;;12.72;34.33
38880;BME280;25887;30.194;-97.880;2023-02-13T04:39:19;98813.03;;;12.64;34.77
38880;BME280;25887;30.194;-97.880;2023-02-13T04:41:44;98807.88;;;12.58;34.99
38880;BME280;25887;30.194;-97.880;2023-02-13T04:44:10;98807.88;;;12.51;34.74
38880;BME280;25887;30.194;-97.880;2023-02-13T04:46:36;98810.47;;;12.45;34.74
38880;BME280;25887;30.194;-97.880;2023-02-13T04:49:02;98805.31;;;12.39;34.96
38880;BME280;25887;30.194;-97.880;2023-02-13T04:51:28;98801.00;;;12.34;34.74
38880;BME280;25887;30.194;-97.880;2023-02-13T04:53:54;98810.44;;;12.28;34.95
38880;BME280;25887;30.194;-97.880;2023-02-13T04:56:19;98807.88;;;12.24;34.94
38880;BME280;25887;30.194;-97.880;2023-02-13T04:58:45;98804.47;;;12.22;34.91
38880;BME280;25887;30.194;-97.880;2023-02-13T05:01:23;98803.59;;;12.20;34.91
38880;BME280;25887;30.194;-97.880;2023-02-13T05:03:48;98795.00;;;12.16;35.47
38880;BME280;25887;30.194;-97.880;2023-02-13T05:06:14;98795.88;;;12.15;35.02
38880;BME280;25887;30.194;-97.880;2023-02-13T05:08:40;98790.69;;;12.14;35.33
38880;BME280;25887;30.194;-97.880;2023-02-13T05:11:06;98786.41;;;12.13;35.22
38880;BME280;25887;30.194;-97.880;2023-02-13T05:13:32;98788.13;;;12.12;35.25
38880;BME280;25887;30.194;-97.880;2023-02-13T05:16:05;98783.00;;;12.09;35.34
38880;BME280;25887;30.194;-97.880;2023-02-13T05:18:34;98785.56;;;12.08;35.54
38880;BME280;25887;30.194;-97.880;2023-02-13T05:21:20;98777.84;;;12.06;35.54
38880;BME280;25887;30.194;-97.880;2023-02-13T05:24:04;98776.09;;;12.04;35.38
38880;BME280;25887;30.194;-97.880;2023-02-13T05:26:32;98770.09;;;12.02;35.89
38880;BME280;25887;30.194;-97.880;2023-02-13T05:28:58;98774.41;;;12.01;35.85
38880;BME280;25887;30.194;-97.880;2023-02-13T05:31:42;98777.84;;;12.00;35.65
38880;BME280;25887;30.194;-97.880;2023-02-13T05:34:08;98777.84;;;12.00;35.70
38880;BME280;25887;30.194;-97.880;2023-02-13T05:36:33;98777.84;;;12.02;36.03
38880;BME280;25887;30.194;-97.880;2023-02-13T05:38:59;98773.53;;;12.04;35.74
38880;BME280;25887;30.194;-97.880;2023-02-13T05:41:25;98764.97;;;12.06;35.63
38880;BME280;25887;30.194;-97.880;2023-02-13T05:43:51;98769.25;;;12.09;35.79
38880;BME280;25887;30.194;-97.880;2023-02-13T05:46:17;98759.78;;;12.12;36.17
38880;BME280;25887;30.194;-97.880;2023-02-13T05:48:42;98763.25;;;12.16;36.28
38880;BME280;25887;30.194;-97.880;2023-02-13T05:51:08;98769.25;;;12.19;36.00
38880;BME280;25887;30.194;-97.880;2023-02-13T05:53:34;98768.41;;;12.23;35.96
38880;BME280;25887;30.194;-97.880;2023-02-13T05:56:00;98757.22;;;12.26;36.36
38880;BME280;25887;30.194;-97.880;2023-02-13T05:58:27;98757.22;;;12.31;36.38
38880;BME280;25887;30.194;-97.880;2023-02-13T06:00:54;98754.63;;;12.34;36.21
38880;BME280;25887;30.194;-97.880;2023-02-13T06:03:20;98764.09;;;12.38;36.02
38880;BME280;25887;30.194;-97.880;2023-02-13T06:05:46;98760.63;;;12.42;36.38
38880;BME280;25887;30.194;-97.880;2023-02-13T06:08:12;98763.22;;;12.46;36.40
38880;BME280;25887;30.194;-97.880;2023-02-13T06:10:37;98764.06;;;12.51;36.38
38880;BME280;25887;30.194;-97.880;2023-02-13T06:16:14;98760.59;;;12.63;36.25
38880;BME280;25887;30.194;-97.880;2023-02-13T06:18:39;98760.59;;;12.68;36.17
38880;BME280;25887;30.194;-97.880;2023-02-13T06:21:06;98766.59;;;12.71;36.32
38880;BME280;25887;30.194;-97.880;2023-02-13T06:23:32;98772.63;;;12.76;36.09
38880;BME280;25887;30.194;-97.880;2023-02-13T06:26:02;98759.72;;;12.78;35.93
38880;BME280;25887;30.194;-97.880;2023-02-13T06:28:28;98767.41;;;12.82;36.07
38880;BME280;25887;30.194;-97.880;2023-02-13T06:30:54;98763.97;;;12.83;35.85
38880;BME280;25887;30.194;-97.880;2023-02-13T06:33:19;98756.25;;;12.87;36.16
38880;BME280;25887;30.194;-97.880;2023-02-13T06:35:47;98766.56;;;12.88;35.79
38880;BME280;25887;30.194;-97.880;2023-02-13T06:38:31;98757.94;;;12.91;35.84
38880;BME280;25887;30.194;-97.880;2023-02-13T06:40:58;98755.34;;;12.91;36.17
38880;BME280;25887;30.194;-97.880;2023-02-13T06:43:24;98763.13;;;12.92;35.98
38880;BME280;25887;30.194;-97.880;2023-02-13T06:45:55;98766.56;;;12.93;35.98
38880;BME280;25887;30.194;-97.880;2023-02-13T06:48:20;98764.84;;;12.93;36.08
38880;BME280;25887;30.194;-97.880;2023-02-13T06:50:46;98760.53;;;12.94;36.11
38880;BME280;25887;30.194;-97.880;2023-02-13T06:53:26;98758.78;;;12.96;36.08
38880;BME280;25887;30.194;-97.880;2023-02-13T06:55:52;98744.19;;;12.95;36.16
38880;BME280;25887;30.194;-97.880;2023-02-13T06:58:20;98755.38;;;12.94;35.85
38880;BME280;25887;30.194;-97.880;2023-02-13T07:00:46;98749.34;;;12.93;36.11
38880;BME280;25887;30.194;-97.880;2023-02-13T07:03:12;98742.50;;;12.92;36.16
38880;BME280;25887;30.194;-97.880;2023-02-13T07:05:56;98746.75;;;12.92;36.22
38880;BME280;25887;30.194;-97.880;2023-02-13T07:08:22;98746.75;;;12.92;36.18
38880;BME280;25887;30.194;-97.880;2023-02-13T07:10:48;98737.31;;;12.91;36.28
38880;BME280;25887;30.194;-97.880;2023-02-13T07:13:32;98745.91;;;12.91;36.29
38880;BME280;25887;30.194;-97.880;2023-02-13T07:15:59;98745.91;;;12.91;35.96
38880;BME280;25887;30.194;-97.880;2023-02-13T07:18:25;98740.75;;;12.91;36.08
38880;BME280;25887;30.194;-97.880;2023-02-13T07:20:51;98730.44;;;12.91;36.19
38880;BME280;25887;30.194;-97.880;2023-02-13T07:23:16;98736.44;;;12.92;36.55
38880;BME280;25887;30.194;-97.880;2023-02-13T07:25:42;98719.25;;;12.91;36.45
38880;BME280;25887;30.194;-97.880;2023-02-13T07:28:08;98714.09;;;12.91;36.61
38880;BME280;25887;30.194;-97.880;2023-02-13T07:30:52;98704.66;;;12.91;36.35
38880;BME280;25887;30.194;-97.880;2023-02-13T07:33:18;98714.97;;;12.91;36.74
38880;BME280;25887;30.194;-97.880;2023-02-13T07:35:47;98706.38;;;12.92;36.71
38880;BME280;25887;30.194;-97.880;2023-02-13T07:38:14;98713.25;;;12.93;36.39
38880;BME280;25887;30.194;-97.880;2023-02-13T07:40:40;98702.94;;;12.93;36.52
38880;BME280;25887;30.194;-97.880;2023-02-13T07:43:06;98713.25;;;12.93;36.39
38880;BME280;25887;30.194;-97.880;2023-02-13T07:45:32;98711.53;;;12.94;36.89
38880;BME280;25887;30.194;-97.880;2023-02-13T07:48:22;98703.78;;;12.94;36.93
38880;BME280;25887;30.194;-97.880;2023-02-13T07:50:50;98696.06;;;12.94;36.58
38880;BME280;25887;30.194;-97.880;2023-02-13T07:53:16;98692.63;;;12.93;36.93
38880;BME280;25887;30.194;-97.880;2023-02-13T07:55:42;98692.63;;;12.93;36.62
38880;BME280;25887;30.194;-97.880;2023-02-13T07:58:25;98694.34;;;12.94;36.96
38880;BME280;25887;30.194;-97.880;2023-02-13T08:01:11;98692.63;;;12.93;36.95
38880;BME280;25887;30.194;-97.880;2023-02-13T08:03:37;98702.09;;;12.93;36.88
38880;BME280;25887;30.194;-97.880;2023-02-13T08:06:04;98709.81;;;12.93;36.95
38880;BME280;25887;30.194;-97.880;2023-02-13T08:08:46;98697.75;;;12.92;36.96
38880;BME280;25887;30.194;-97.880;2023-02-13T08:11:51;98692.59;;;12.92;36.87
38880;BME280;25887;30.194;-97.880;2023-02-13T08:14:21;98687.47;;;12.90;36.81
38880;BME280;25887;30.194;-97.880;2023-02-13T08:16:47;98685.75;;;12.91;37.27
38880;BME280;25887;30.194;-97.880;2023-02-13T08:19:13;98687.47;;;12.89;36.94
38880;BME280;25887;30.194;-97.880;2023-02-13T08:21:59;98691.78;;;12.87;37.41
38880;BME280;25887;30.194;-97.880;2023-02-13T08:24:25;98688.34;;;12.86;37.06
38880;BME280;25887;30.194;-97.880;2023-02-13T08:26:51;98689.22;;;12.85;37.34
38880;BME280;25887;30.194;-97.880;2023-02-13T08:29:21;98684.03;;;12.83;37.41
38880;BME280;25887;30.194;-97.880;2023-02-13T08:31:47;98684.06;;;12.82;37.12
38880;BME280;25887;30.194;-97.880;2023-02-13T08:34:13;98684.91;;;12.82;37.29
38880;BME280;25887;30.194;-97.880;2023-02-13T08:36:39;98678.91;;;12.80;37.35
38880;BME280;25887;30.194;-97.880;2023-02-13T08:39:35;98665.16;;;12.80;37.61
38880;BME280;25887;30.194;-97.880;2023-02-13T08:42:00;98661.72;;;12.79;37.68
38880;BME280;25887;30.194;-97.880;2023-02-13T08:44:26;98664.31;;;12.79;37.50
38880;BME280;25887;30.194;-97.880;2023-02-13T08:46:52;98660.03;;;12.78;37.68
38880;BME280;25887;30.194;-97.880;2023-02-13T08:49:18;98648.84;;;12.79;37.27
38880;BME280;25887;30.194;-97.880;2023-02-13T08:51:44;98641.13;;;12.78;37.68
38880;BME280;25887;30.194;-97.880;2023-02-13T08:54:10;98645.44;;;12.77;37.79
38880;BME280;25887;30.194;-97.880;2023-02-13T08:56:35;98647.97;;;12.76;37.52
38880;BME280;25887;30.194;-97.880;2023-02-13T08:59:36;98655.72;;;12.74;37.46
38880;BME280;25887;30.194;-97.880;2023-02-13T09:02:24;98659.19;;;12.73;37.92
38880;BME280;25887;30.194;-97.880;2023-02-13T09:04:51;98654.03;;;12.73;37.55
38880;BME280;25887;30.194;-97.880;2023-02-13T09:07:17;98664.34;;;12.73;37.52
38880;BME280;25887;30.194;-97.880;2023-02-13T09:09:43;98669.50;;;12.73;38.06
38880;BME280;25887;30.194;-97.880;2023-02-13T09:12:08;98671.19;;;12.74;37.59
38880;BME280;25887;30.194;-97.880;2023-02-13T09:15:08;98667.75;;;12.75;38.18
38880;BME280;25887;30.194;-97.880;2023-02-13T09:17:34;98662.59;;;12.75;37.99
38880;BME280;25887;30.194;-97.880;2023-02-13T09:20:00;98660.88;;;12.74;37.95
38880;BME280;25887;30.194;-97.880;2023-02-13T09:22:26;98660.88;;;12.76;38.19
38880;BME280;25887;30.194;-97.880;2023-02-13T09:24:51;98662.59;;;12.75;37.91
38880;BME280;25887;30.194;-97.880;2023-02-13T09:27:17;98653.13;;;12.76;38.23
38880;BME280;25887;30.194;-97.880;2023-02-13T09:29:43;98668.59;;;12.76;38.23
38880;BME280;25887;30.194;-97.880;2023-02-13T09:35:08;98680.66;;;12.74;38.13
38880;BME280;25887;30.194;-97.880;2023-02-13T09:37:36;98684.97;;;12.73;38.22
38880;BME280;25887;30.194;-97.880;2023-02-13T09:40:02;98674.66;;;12.73;38.07
38880;BME280;25887;30.194;-97.880;2023-02-13T09:42:29;98666.91;;;12.72;38.54
38880;BME280;25887;30.194;-97.880;2023-02-13T09:44:58;98675.53;;;12.71;38.59
38880;BME280;25887;30.194;-97.880;2023-02-13T09:47:28;98669.50;;;12.70;38.19
38880;BME280;25887;30.194;-97.880;2023-02-13T09:50:05;98661.78;;;12.70;38.68
38880;BME280;25887;30.194;-97.880;2023-02-13T09:52:33;98653.16;;;12.68;38.48
38880;BME280;25887;30.194;-97.880;2023-02-13T09:55:12;98656.63;;;12.69;38.28
38880;BME280;25887;30.194;-97.880;2023-02-13T09:57:41;98666.06;;;12.68;38.76
38880;BME280;25887;30.194;-97.880;2023-02-13T10:00:19;98663.50;;;12.67;38.65
38880;BME280;25887;30.194;-97.880;2023-02-13T10:08:07;98644.59;;;12.66;38.92
38880;BME280;25887;30.194;-97.880;2023-02-13T10:18:09;98644.63;;;12.62;39.08
38880;BME280;25887;30.194;-97.880;2023-02-13T10:20:47;98646.34;;;12.61;39.01
38880;BME280;25887;30.194;-97.880;2023-02-13T10:23:17;98630.88;;;12.58;39.12
38880;BME280;25887;30.194;-97.880;2023-02-13T10:25:58;98645.47;;;12.59;39.04
38880;BME280;25887;30.194;-97.880;2023-02-13T10:30:55;98624.03;;;12.54;38.90
38880;BME280;25887;30.194;-97.880;2023-02-13T10:33:57;98623.19;;;12.53;38.97
38880;BME280;25887;30.194;-97.880;2023-02-13T10:36:16;98633.50;;;12.53;39.33
38880;BME280;25887;30.194;-97.880;2023-02-13T10:47:05;98638.66;;;12.47;39.64
38880;BME280;25887;30.194;-97.880;2023-02-13T10:50:10;98641.25;;;12.46;39.65
38880;BME280;25887;30.194;-97.880;2023-02-13T11:00:22;98648.16;;;12.35;39.48
38880;BME280;25887;30.194;-97.880;2023-02-13T11:02:49;98650.75;;;12.32;39.72
38880;BME280;25887;30.194;-97.880;2023-02-13T11:05:17;98652.47;;;12.30;39.96
38880;BME280;25887;30.194;-97.880;2023-02-13T11:07:44;98661.88;;;12.29;39.70
38880;BME280;25887;30.194;-97.880;2023-02-13T11:10:28;98652.47;;;12.26;40.08
38880;BME280;25887;30.194;-97.880;2023-02-13T11:12:54;98646.44;;;12.26;40.22
38880;BME280;25887;30.194;-97.880;2023-02-13T11:17:46;98664.50;;;12.24;39.79
38880;BME280;25887;30.194;-97.880;2023-02-13T11:21:35;98654.19;;;12.21;39.79
38880;BME280;25887;30.194;-97.880;2023-02-13T11:23:37;98662.78;;;12.20;39.92
38880;BME280;25887;30.194;-97.880;2023-02-13T11:28:34;98652.47;;;12.19;40.42
38880;BME280;25887;30.194;-97.880;2023-02-13T11:33:49;98646.47;;;12.18;39.96
38880;BME280;25887;30.194;-97.880;2023-02-13T11:36:21;98658.50;;;12.16;40.02
38880;BME280;25887;30.194;-97.880;2023-02-13T11:38:57;98654.22;;;12.15;40.26
38880;BME280;25887;30.194;-97.880;2023-02-13T11:41:39;98657.63;;;12.13;40.23
38880;BME280;25887;30.194;-97.880;2023-02-13T11:44:14;98658.50;;;12.13;40.61
38880;BME280;25887;30.194;-97.880;2023-02-13T11:46:47;98649.91;;;12.11;40.22
38880;BME280;25887;30.194;-97.880;2023-02-13T11:49:18;98660.22;;;12.10;40.44
38880;BME280;25887;30.194;-97.880;2023-02-13T11:51:45;98669.66;;;12.09;40.31
38880;BME280;25887;30.194;-97.880;2023-02-13T11:54:44;98673.97;;;12.09;40.57
38880;BME280;25887;30.194;-97.880;2023-02-13T12:05:58;98679.09;;;12.04;40.80
38880;BME280;25887;30.194;-97.880;2023-02-13T12:08:24;98679.97;;;12.02;40.69
38880;BME280;25887;30.194;-97.880;2023-02-13T12:10:50;98681.69;;;12.01;40.64
38880;BME280;25887;30.194;-97.880;2023-02-13T12:13:26;98673.97;;;11.99;40.72
38880;BME280;25887;30.194;-97.880;2023-02-13T12:15:58;98667.97;;;11.97;40.89
38880;BME280;25887;30.194;-97.880;2023-02-13T12:18:47;98673.13;;;11.96;40.72
38880;BME280;25887;30.194;-97.880;2023-02-13T12:26:29;98667.13;;;11.88;40.94
38880;BME280;25887;30.194;-97.880;2023-02-13T12:29:31;98668.84;;;11.84;41.12
38880;BME280;25887;30.194;-97.880;2023-02-13T12:32:25;98665.41;;;11.81;41.13
38880;BME280;25887;30.194;-97.880;2023-02-13T12:43:20;98655.94;;;11.77;41.48
38880;BME280;25887;30.194;-97.880;2023-02-13T12:45:52;98661.09;;;11.78;41.30
38880;BME280;25887;30.194;-97.880;2023-02-13T12:51:06;98655.13;;;11.84;41.46
38880;BME280;25887;30.194;-97.880;2023-02-13T13:06:09;98685.13;;;12.03;41.96
38880;BME280;25887;30.194;-97.880;2023-02-13T13:08:42;98691.16;;;12.07;41.84
38880;BME280;25887;30.194;-97.880;2023-02-13T13:14:01;98710.00;;;12.13;42.14
38880;BME280;25887;30.194;-97.880;2023-02-13T13:19:30;98702.28;;;12.19;41.67
38880;BME280;25887;30.194;-97.880;2023-02-13T13:24:39;98710.00;;;12.25;41.92
38880;BME280;25887;30.194;-97.880;2023-02-13T13:27:14;98721.13;;;12.29;42.01
38880;BME280;25887;30.194;-97.880;2023-02-13T13:29:43;98720.31;;;12.30;42.03
38880;BME280;25887;30.194;-97.880;2023-02-13T13:32:13;98728.03;;;12.32;42.19
38880;BME280;25887;30.194;-97.880;2023-02-13T13:34:42;98736.59;;;12.34;42.11
38880;BME280;25887;30.194;-97.880;2023-02-13T13:37:22;98737.44;;;12.36;42.28
38880;BME280;25887;30.194;-97.880;2023-02-13T13:42:59;98749.47;;;12.40;42.13
38880;BME280;25887;30.194;-97.880;2023-02-13T13:50:49;98764.09;;;12.47;42.45
38880;BME280;25887;30.194;-97.880;2023-02-13T13:53:18;98764.06;;;12.50;42.28
38880;BME280;25887;30.194;-97.880;2023-02-13T13:58:44;98779.50;;;12.58;42.74
38880;BME280;25887;30.194;-97.880;2023-02-13T14:03:50;98777.78;;;12.64;42.71
38880;BME280;25887;30.194;-97.880;2023-02-13T14:09:04;98761.44;;;12.74;42.51
38880;BME280;25887;30.194;-97.880;2023-02-13T14:11:37;98781.19;;;12.81;42.46
38880;BME280;25887;30.194;-97.880;2023-02-13T14:16:47;98776.00;;;12.94;42.79
38880;BME280;25887;30.194;-97.880;2023-02-13T14:19:32;98785.41;;;12.99;42.72
38880;BME280;25887;30.194;-97.880;2023-02-13T14:25:05;98794.84;;;13.11;42.65
38880;BME280;25887;30.194;-97.880;2023-02-13T14:27:35;98795.69;;;13.16;43.03
38880;BME280;25887;30.194;-97.880;2023-02-13T14:30:03;98801.72;;;13.21;42.76
38880;BME280;25887;30.194;-97.880;2023-02-13T14:32:48;98799.97;;;13.28;42.92
38880;BME280;25887;30.194;-97.880;2023-02-13T14:35:27;98802.56;;;13.31;42.81
38880;BME280;25887;30.194;-97.880;2023-02-13T14:37:54;98801.66;;;13.36;43.24
38880;BME280;25887;30.194;-97.880;2023-02-13T14:45:25;98799.84;;;13.54;43.03
38880;BME280;25887;30.194;-97.880;2023-02-13T14:47:53;98805.84;;;13.62;43.23
38880;BME280;25887;30.194;-97.880;2023-02-13T14:50:25;98815.25;;;13.69;43.14
38880;BME280;25887;30.194;-97.880;2023-02-13T14:52:52;98811.78;;;13.76;43.18
38880;BME280;25887;30.194;-97.880;2023-02-13T15:03:45;98803.88;;;13.98;43.48
38880;BME280;25887;30.194;-97.880;2023-02-13T15:06:13;98789.19;;;14.06;43.66
38880;BME280;25887;30.194;-97.880;2023-02-13T15:09:04;98781.38;;;14.15;43.54
38880;BME280;25887;30.194;-97.880;2023-02-13T15:19:28;98787.25;;;14.34;43.44
38880;BME280;25887;30.194;-97.880;2023-02-13T15:21:56;98786.34;;;14.38;43.53
38880;BME280;25887;30.194;-97.880;2023-02-13T15:24:22;98782.88;;;14.39;43.65
38880;BME280;25887;30.194;-97.880;2023-02-13T15:26:57;98773.41;;;14.41;43.43
38880;BME280;25887;30.194;-97.880;2023-02-13T15:29:26;98781.13;;;14.44;43.50
38880;BME280;25887;30.194;-97.880;2023-02-13T15:31:56;98800.09;;;14.47;43.66
38880;BME280;25887;30.194;-97.880;2023-02-13T15:34:24;98803.47;;;14.53;43.54
38880;BME280;25887;30.194;-97.880;2023-02-13T15:36:50;98812.00;;;14.62;43.75
38880;BME280;25887;30.194;-97.880;2023-02-13T15:39:29;98815.38;;;14.70;44.04
38880;BME280;25887;30.194;-97.880;2023-02-13T15:41:56;98814.47;;;14.76;44.15
38880;BME280;25887;30.194;-97.880;2023-02-13T15:44:33;98814.41;;;14.82;43.84
38880;BME280;25887;30.194;-97.880;2023-02-13T15:47:02;98829.00;;;14.89;44.09
38880;BME280;25887;30.194;-97.880;2023-02-13T15:49:29;98819.44;;;14.97;43.94
38880;BME280;25887;30.194;-97.880;2023-02-13T15:52:02;98818.47;;;15.06;43.95
38880;BME280;25887;30.194;-97.880;2023-02-13T15:54:32;98819.19;;;15.17;43.93
38880;BME280;25887;30.194;-97.880;2023-02-13T15:57:01;98808.75;;;15.26;44.15
38880;BME280;25887;30.194;-97.880;2023-02-13T15:59:59;98810.38;;;15.35;43.91
38880;BME280;25887;30.194;-97.880;2023-02-13T16:05:03;98823.16;;;15.49;44.10
38880;BME280;25887;30.194;-97.880;2023-02-13T16:07:44;98829.94;;;15.57;44.26
38880;BME280;25887;30.194;-97.880;2023-02-13T16:10:25;98816.72;;;15.79;44.16
38880;BME280;25887;30.194;-97.880;2023-02-13T16:12:51;98821.78;;;15.88;44.24